^^
Saratoga-Weather Station Historical Data
Daily Summary for July 24, 2021 Units:  Both    English   Metric
Daily Weekly Monthly Yearly Custom
  High: Low: Average:
Temperature: 67.5 °F /  19.7 °C 65.3 °F /  18.5 °C 66 °F /  18.9 °C
Dew Point: 58.3 °F /  14.6 °C 56.5 °F /  13.6 °C 57.4 °F /  14.1 °C
Humidity: 76% 72% 74%
Wind Speed: 2mph /  3.2km/h - 0.3mph /  0.5km/h
Wind Gust: 2mph /  3.2km/h - -
Wind- - SSW
Pressure: 29.8 in /  1009.8 hPa 29.7 in /  1007.1 hPa -
Precipitation: 0 in /  0.0 mm    
Historical Graphs
 
 
Tabular Data for July 24, 2021
Time Temperature Dew Point Pressure Wind Wind Speed Wind Gust Humidity Rainfall Rate (Hourly) solar
00:02 67.3 °F /  19.6 °C 57.9 °F /  14.4 °C 29.8in /  1009.5hPa Calm   1mph /  1.6km/h 72% 0in /  0.0mm 0 W/m2
00:07 67.5 °F /  19.7 °C 58.1 °F /  14.5 °C 29.8in /  1009.1hPa Calm   1mph /  1.6km/h 72% 0in /  0.0mm 0 W/m2
00:12 67.5 °F /  19.7 °C 58.1 °F /  14.5 °C 29.8in /  1009.1hPa Calm   1mph /  1.6km/h 72% 0in /  0.0mm 0 W/m2
00:17 67.3 °F /  19.6 °C 58.3 °F /  14.6 °C 29.8in /  1009.1hPa Calm   2mph /  3.2km/h 73% 0in /  0.0mm 0 W/m2
00:22 67.3 °F /  19.6 °C 58.3 °F /  14.6 °C 29.8in /  1009.1hPa SE 0.9mph /  1.4km/h 1mph /  1.6km/h 73% 0in /  0.0mm 0 W/m2
00:27 66.9 °F /  19.4 °C 58.3 °F /  14.6 °C 29.8in /  1009.5hPa Calm     74% 0in /  0.0mm 0 W/m2
00:32 66.7 °F /  19.3 °C 57.7 °F /  14.3 °C 29.8in /  1009.5hPa Calm     73% 0in /  0.0mm 0 W/m2
00:37 66.6 °F /  19.2 °C 57.6 °F /  14.2 °C 29.8in /  1009.8hPa WSW 0.9mph /  1.4km/h 2mph /  3.2km/h 73% 0in /  0.0mm 0 W/m2
00:42 66.6 °F /  19.2 °C 57.6 °F /  14.2 °C 29.8in /  1009.8hPa SW 0.9mph /  1.4km/h 2mph /  3.2km/h 73% 0in /  0.0mm 0 W/m2
00:47 66.4 °F /  19.1 °C 57.4 °F /  14.1 °C 29.8in /  1009.5hPa SW 0.9mph /  1.4km/h 2mph /  3.2km/h 73% 0in /  0.0mm 0 W/m2
00:52 66.4 °F /  19.1 °C 57.9 °F /  14.4 °C 29.8in /  1009.5hPa SW 2mph /  3.2km/h 2mph /  3.2km/h 74% 0in /  0.0mm 0 W/m2
00:57 66.4 °F /  19.1 °C 57.9 °F /  14.4 °C 29.8in /  1009.8hPa SW 2mph /  3.2km/h 2mph /  3.2km/h 74% 0in /  0.0mm 0 W/m2
01:02 66.4 °F /  19.1 °C 58.3 °F /  14.6 °C 29.8in /  1009.8hPa Calm   2mph /  3.2km/h 75% 0in /  0.0mm 0 W/m2
01:07 66.4 °F /  19.1 °C 58.3 °F /  14.6 °C 29.8in /  1009.8hPa SW 0.9mph /  1.4km/h 2mph /  3.2km/h 75% 0in /  0.0mm 0 W/m2
01:12 66.4 °F /  19.1 °C 58.3 °F /  14.6 °C 29.8in /  1009.8hPa SW 0.9mph /  1.4km/h 1mph /  1.6km/h 75% 0in /  0.0mm 0 W/m2
01:17 66.2 °F /  19 °C 58.1 °F /  14.5 °C 29.8in /  1009.8hPa SW 0.9mph /  1.4km/h 2mph /  3.2km/h 75% 0in /  0.0mm 0 W/m2
01:22 66 °F /  18.9 °C 57.6 °F /  14.2 °C 29.8in /  1009.5hPa Calm     74% 0in /  0.0mm 0 W/m2
01:27 65.8 °F /  18.8 °C 57.4 °F /  14.1 °C 29.8in /  1009.5hPa Calm     74% 0in /  0.0mm 0 W/m2
01:32 65.8 °F /  18.8 °C 57.4 °F /  14.1 °C 29.8in /  1009.1hPa Calm     74% 0in /  0.0mm 0 W/m2
01:37 65.7 °F /  18.7 °C 57.2 °F /  14 °C 29.8in /  1009.1hPa Calm     74% 0in /  0.0mm 0 W/m2
01:42 65.7 °F /  18.7 °C 57.6 °F /  14.2 °C 29.8in /  1009.1hPa Calm     75% 0in /  0.0mm 0 W/m2
01:47 65.5 °F /  18.6 °C 57.4 °F /  14.1 °C 29.8in /  1008.8hPa Calm     75% 0in /  0.0mm 0 W/m2
01:52 65.5 °F /  18.6 °C 57.7 °F /  14.3 °C 29.8in /  1008.8hPa Calm     76% 0in /  0.0mm 0 W/m2
01:57 65.5 °F /  18.6 °C 57.4 °F /  14.1 °C 29.8in /  1008.5hPa Calm   1mph /  1.6km/h 75% 0in /  0.0mm 0 W/m2
02:02 65.7 °F /  18.7 °C 57.6 °F /  14.2 °C 29.8in /  1008.5hPa Calm     75% 0in /  0.0mm 0 W/m2
02:07 65.7 °F /  18.7 °C 57.2 °F /  14 °C 29.8in /  1008.1hPa Calm     74% 0in /  0.0mm 0 W/m2
02:12 65.7 °F /  18.7 °C 57.2 °F /  14 °C 29.8in /  1008.1hPa Calm   1mph /  1.6km/h 74% 0in /  0.0mm 0 W/m2
02:17 65.7 °F /  18.7 °C 57.2 °F /  14 °C 29.8in /  1008.1hPa South 0.9mph /  1.4km/h 2mph /  3.2km/h 74% 0in /  0.0mm 0 W/m2
02:22 65.7 °F /  18.7 °C 56.8 °F /  13.8 °C 29.8in /  1008.1hPa Calm   1mph /  1.6km/h 73% 0in /  0.0mm 0 W/m2
02:27 65.7 °F /  18.7 °C 56.8 °F /  13.8 °C 29.8in /  1007.8hPa Calm   2mph /  3.2km/h 73% 0in /  0.0mm 0 W/m2
02:32 65.8 °F /  18.8 °C 57 °F /  13.9 °C 29.8in /  1007.8hPa Calm     73% 0in /  0.0mm 0 W/m2
02:37 65.8 °F /  18.8 °C 56.5 °F /  13.6 °C 29.8in /  1007.8hPa Calm   1mph /  1.6km/h 72% 0in /  0.0mm 0 W/m2
02:42 66 °F /  18.9 °C 56.7 °F /  13.7 °C 29.8in /  1007.5hPa SSW 0.9mph /  1.4km/h 1mph /  1.6km/h 72% 0in /  0.0mm 0 W/m2
02:47 66.2 °F /  19 °C 57.2 °F /  14 °C 29.8in /  1007.5hPa SSW 2mph /  3.2km/h 2mph /  3.2km/h 73% 0in /  0.0mm 0 W/m2
02:52 66.2 °F /  19 °C 57.2 °F /  14 °C 29.8in /  1007.8hPa SSW 0.9mph /  1.4km/h 1mph /  1.6km/h 73% 0in /  0.0mm 0 W/m2
02:57 66 °F /  18.9 °C 57.6 °F /  14.2 °C 29.8in /  1007.5hPa Calm     74% 0in /  0.0mm 0 W/m2
03:02 65.8 °F /  18.8 °C 57.4 °F /  14.1 °C 29.8in /  1007.5hPa Calm     74% 0in /  0.0mm 0 W/m2
03:07 65.8 °F /  18.8 °C 57 °F /  13.9 °C 29.8in /  1007.5hPa Calm     73% 0in /  0.0mm 0 W/m2
03:12 65.7 °F /  18.7 °C 56.8 °F /  13.8 °C 29.8in /  1007.5hPa Calm     73% 0in /  0.0mm 0 W/m2
03:17 65.7 °F /  18.7 °C 57.2 °F /  14 °C 29.8in /  1007.5hPa Calm     74% 0in /  0.0mm 0 W/m2
03:22 65.5 °F /  18.6 °C 57 °F /  13.9 °C 29.7in /  1007.1hPa Calm     74% 0in /  0.0mm 0 W/m2
03:27 65.5 °F /  18.6 °C 57 °F /  13.9 °C 29.8in /  1007.5hPa South 0.9mph /  1.4km/h 2mph /  3.2km/h 74% 0in /  0.0mm 0 W/m2
03:32 65.7 °F /  18.7 °C 56.8 °F /  13.8 °C 29.8in /  1007.5hPa South 0.9mph /  1.4km/h 1mph /  1.6km/h 73% 0in /  0.0mm 0 W/m2
03:37 65.8 °F /  18.8 °C 57 °F /  13.9 °C 29.8in /  1007.5hPa South 0.9mph /  1.4km/h 1mph /  1.6km/h 73% 0in /  0.0mm 0 W/m2
03:42 65.8 °F /  18.8 °C 57 °F /  13.9 °C 29.8in /  1007.5hPa Calm   1mph /  1.6km/h 73% 0in /  0.0mm 0 W/m2
03:47 65.8 °F /  18.8 °C 57 °F /  13.9 °C 29.8in /  1007.5hPa Calm     73% 0in /  0.0mm 0 W/m2
03:52 65.8 °F /  18.8 °C 57 °F /  13.9 °C 29.8in /  1007.5hPa Calm     73% 0in /  0.0mm 0 W/m2
03:57 65.8 °F /  18.8 °C 57 °F /  13.9 °C 29.8in /  1007.5hPa Calm     73% 0in /  0.0mm 0 W/m2
04:02 65.7 °F /  18.7 °C 56.8 °F /  13.8 °C 29.8in /  1007.5hPa Calm     73% 0in /  0.0mm 0 W/m2
04:07 65.7 °F /  18.7 °C 57.2 °F /  14 °C 29.8in /  1007.8hPa Calm     74% 0in /  0.0mm 0 W/m2
04:12 65.7 °F /  18.7 °C 57.2 °F /  14 °C 29.8in /  1008.1hPa Calm     74% 0in /  0.0mm 0 W/m2
04:17 65.5 °F /  18.6 °C 57 °F /  13.9 °C 29.8in /  1008.5hPa Calm     74% 0in /  0.0mm 0 W/m2
04:22 65.5 °F /  18.6 °C 57.4 °F /  14.1 °C 29.8in /  1008.1hPa Calm     75% 0in /  0.0mm 0 W/m2
04:27 65.5 °F /  18.6 °C 57.4 °F /  14.1 °C 29.8in /  1008.1hPa Calm     75% 0in /  0.0mm 0 W/m2
04:32 65.5 °F /  18.6 °C 57.7 °F /  14.3 °C 29.8in /  1008.1hPa Calm     76% 0in /  0.0mm 0 W/m2
04:37 65.3 °F /  18.5 °C 57.2 °F /  14 °C 29.8in /  1008.1hPa Calm     75% 0in /  0.0mm 0 W/m2
Juneau County Weather
Compliments of Weather Underground - 2 mb